Terminal Aerodrome Forecast
Issued by NWS Flagstaff, AZ

Home | Current Version | Previous Version | Text Only | Print | Product List | Glossary On
Versions: 1 2 3 4 5 6 7 8 9 10 11 12 13 14 15 16 17 18 19 20 21 22 23
000
FTUS45 KFGZ 301140
TAFFLG
TAF
KFLG 301140Z 3012/0112 VRB05KT P6SM BKN035 OVC060
      TEMPO 3012/3016 -SHRA OVC028
     FM301700 20011KT P6SM -SHRA BKN045 OVC060
      TEMPO 3020/3024 RA OVC025
     FM010000 21005KT P6SM -SHRA BKN020 OVC050=

USA.gov is the U.S. government's official web portal to all federal, state and local government web resources and services.